• Join FlightAware (Why Join?)
  • Login
  • US Flag 
09:53PM EDT


 

Airport Tracker/Info


-or-


 

Live Flight TrackerFlight Track Log ✈ BOE21 ✈ 30-Jul-2011 ✈ KIWA - KBFI

Flight Track Log - Related Links

Times and Time Zones

All times are in EDT time to prevent confusion due to time zone crossing. See the BOE21 flight status page for this flight to view local times or setup timezone preferences in your user account.

Time Position Orientation Groundspeed Altitude Reporting Facility
EDT Latitude Longitude Course Direction KTS MPH feet Rate Location/Type
07:33PM 33.3000 -111.6500 121° Southeast 156 180 2,000  Level Phoenix TRACON
07:34PM 33.2833 -111.6167 112° Southeast 200 230 3,500 2,040 Climbing Phoenix TRACON
07:36PM 33.2353 -111.4767 355° North 237 273 7,700 2,580 Climbing Albuquerque Center
07:37PM 33.3206 -111.4856 343° North 170 196 11,400 2,940 Climbing Albuquerque Center
07:38PM 33.4172 -111.5203 344° North 267 307 13,600 2,520 Climbing Albuquerque Center
07:39PM 33.5286 -111.5581 345° North 366 421 16,500 3,000 Climbing Albuquerque Center
07:40PM 33.6422 -111.5939 352° North 411 473 19,700 2,220 Climbing Albuquerque Center
07:41PM 33.7603 -111.6147 360° North 433 498 21,000 1,500 Climbing Albuquerque Center
07:42PM 33.8731 -111.6156 355° North 433 498 22,800 2,040 Climbing Albuquerque Center
07:43PM 34.0164 -111.6303 347° North 447 514 25,100 2,100 Climbing Albuquerque Center
07:44PM 34.1300 -111.6614 345° North 469 540 27,100 1,800 Climbing Albuquerque Center
07:45PM 34.2619 -111.7033 331° Northwest 484 557 28,800 2,460 Climbing Albuquerque Center
07:46PM 34.3781 -111.7825 344° North 484 557 32,100 1,560 Climbing Albuquerque Center
07:47PM 34.5100 -111.8272 351° North 479 551 32,000 60 Descending Albuquerque Center
07:48PM 34.6675 -111.8561 349° North 505 581 32,300 1,440 Climbing Albuquerque Center
07:49PM 34.8039 -111.8889 350° North 510 587 34,900 2,100 Climbing Albuquerque Center
07:51PM 35.0133 -111.9339 350° North 485 558 37,900 1,620 Climbing Los Angeles Center
07:52PM 35.1606 -111.9672 350° North 480 552 39,400 1,020 Climbing Los Angeles Center
07:53PM 35.2911 -111.9961 350° North 480 552 40,000 300 Climbing Los Angeles Center
07:54PM 35.4108 -112.0233 350° North 480 552 40,000  Level Los Angeles Center
07:55PM 35.5433 -112.0525 349° North 480 552 40,000  Level Los Angeles Center
07:56PM 35.6800 -112.0839 350° North 486 559 40,000  Level Los Angeles Center
07:57PM 35.8144 -112.1131 350° North 486 559 40,000  Level Los Angeles Center
07:58PM 35.9469 -112.1425 354° North 486 559 40,000  Level Los Angeles Center
07:59PM 36.0831 -112.1589 358° North 486 559 40,000  Level Los Angeles Center
08:00PM 36.2333 -112.1667 356° North 486 559 40,000  Level Los Angeles Center
08:01PM 36.3589 -112.1786 355° North 486 559 40,000  Level Los Angeles Center
08:02PM 36.4992 -112.1925 356° North 492 566 40,000  Level Los Angeles Center
08:04PM 36.8625 -112.2267 356° North 504 580 40,000  Level Salt Lake Center
08:05PM 37.0033 -112.2392 356° North 503 579 40,000  Level Salt Lake Center
08:06PM 37.1442 -112.2514 356° North 501 577 40,000  Level Salt Lake Center
08:07PM 37.2847 -112.2644 356° North 501 577 40,000  Level Salt Lake Center
08:08PM 37.4258 -112.2778 360° North 502 578 40,000  Level Salt Lake Center
08:08PM 37.4258 -112.2778 356° North 502 578 40,000  Level Salt Lake Center
08:09PM 37.5672 -112.2906 347° North 504 580 40,000  Level Salt Lake Center
08:10PM 37.7022 -112.3303 312° West 501 577 40,000  Level Salt Lake Center
08:11PM 37.7925 -112.4564 310° West 483 556 40,000  Level Salt Lake Center
08:12PM 37.8800 -112.5872 325° Northwest 482 555 40,000  Level Salt Lake Center
08:13PM 37.9928 -112.6878 326° Northwest 493 567 40,000  Level Salt Lake Center
08:14PM 38.1317 -112.8061 326° Northwest 496 571 40,000  Level Salt Lake Center
08:15PM 38.2469 -112.9044 327° Northwest 494 568 40,000  Level Salt Lake Center
08:16PM 38.3633 -113.0025 326° Northwest 495 570 40,000  Level Salt Lake Center
08:17PM 38.4792 -113.1042 326° Northwest 496 571 40,000  Level Salt Lake Center
08:19PM 38.5953 -113.2031 326° Northwest 496 571 40,000  Level Salt Lake Center
08:20PM 38.7114 -113.3025 326° Northwest 495 570 40,000  Level Salt Lake Center
08:21PM 38.8275 -113.4033 326° Northwest 496 571 40,000  Level Salt Lake Center
08:22PM 38.9444 -113.5047 326° Northwest 499 574 40,000 120 Level Salt Lake Center
08:23PM 39.0608 -113.6053 326° Northwest 497 572 40,300 720 Climbing Salt Lake Center
08:24PM 39.1758 -113.7061 326° Northwest 495 570 41,600 780 Climbing Salt Lake Center
08:25PM 39.2889 -113.8064 326° Northwest 489 563 42,000 180 Climbing Salt Lake Center
08:26PM 39.4022 -113.9067 326° Northwest 487 560 42,000  Level Salt Lake Center
08:27PM 39.5153 -114.0064 326° Northwest 486 559 42,000  Level Salt Lake Center
08:28PM 39.6283 -114.1072 326° Northwest 485 558 42,000  Level Salt Lake Center
08:29PM 39.7517 -114.2172 326° Northwest 484 557 42,000  Level Salt Lake Center
08:30PM 39.8631 -114.3169 325° Northwest 482 555 42,000  Level Salt Lake Center
08:31PM 39.9728 -114.4164 325° Northwest 478 550 42,000  Level Salt Lake Center
08:32PM 40.0842 -114.5172 325° Northwest 480 552 42,000 120 Level Salt Lake Center
08:33PM 40.1956 -114.6192 325° Northwest 482 555 42,300 480 Climbing Salt Lake Center
08:34PM 40.3067 -114.7214 326° Northwest 483 556 43,000 240 Climbing Salt Lake Center
08:35PM 40.4175 -114.8214 325° Northwest 476 548 42,900  Descending Salt Lake Center
08:36PM 40.5356 -114.9294 325° Northwest 468 539 43,100 60 Climbing Salt Lake Center
08:37PM 40.6383 -115.0244 325° Northwest 469 540 43,100  Level Salt Lake Center
08:38PM 40.7583 -115.1361 324° Northwest 472 543 43,100 -60 Level Salt Lake Center
08:39PM 40.8572 -115.2308 325° Northwest 468 539 43,000 -60 Descending Salt Lake Center
08:40PM 40.9594 -115.3267 325° Northwest 470 541 43,000  Level Salt Lake Center
08:41PM 41.0811 -115.4403 325° Northwest 475 547 43,000  Level Salt Lake Center
08:42PM 41.1853 -115.5378 325° Northwest 479 551 43,100  Climbing Salt Lake Center
08:43PM 41.3078 -115.6531 324° Northwest 483 556 43,000 -60 Descending Salt Lake Center
08:44PM 41.4111 -115.7519 324° Northwest 478 550 43,000  Level Salt Lake Center
08:45PM 41.5311 -115.8667 325° Northwest 479 551 43,000  Level Salt Lake Center
08:46PM 41.6339 -115.9647 324° Northwest 477 549 43,000  Level Salt Lake Center
08:47PM 41.7367 -116.0642 324° Northwest 474 545 43,100  Climbing Salt Lake Center
08:48PM 41.8561 -116.1792 324° Northwest 474 545 43,000 -60 Descending Salt Lake Center
08:49PM 41.9569 -116.2764 329° Northwest 473 544 43,000  Level Salt Lake Center
08:50PM 42.0883 -116.3842 329° Northwest 478 550 43,000  Level Salt Lake Center
08:51PM 42.1964 -116.4733 328° Northwest 476 548 43,100  Climbing Salt Lake Center
08:52PM 42.3039 -116.5644 328° Northwest 476 548 43,100  Level Salt Lake Center
08:53PM 42.4300 -116.6706 329° Northwest 477 549 43,100  Level Salt Lake Center
08:54PM 42.5389 -116.7611 328° Northwest 479 551 43,100  Level Salt Lake Center
08:55PM 42.6647 -116.8683 328° Northwest 477 549 43,100  Level Salt Lake Center
08:56PM 42.7714 -116.9594 328° Northwest 474 545 43,100  Level Salt Lake Center
08:58PM 42.8786 -117.0506 328° Northwest 474 545 43,100  Level Salt Lake Center
08:59PM 43.0031 -117.1567 328° Northwest 473 544 43,100  Level Salt Lake Center
09:00PM 43.1103 -117.2486 328° Northwest 474 545 43,100  Level Salt Lake Center
09:01PM 43.2353 -117.3567 328° Northwest 474 545 43,100  Level Salt Lake Center
09:02PM 43.3419 -117.4489 328° Northwest 473 544 43,100  Level Salt Lake Center
09:03PM 43.4489 -117.5417 328° Northwest 473 544 43,100  Level Salt Lake Center
09:04PM 43.5728 -117.6503 327° Northwest 472 543 43,100  Level Salt Lake Center
09:05PM 43.6764 -117.7425 327° Northwest 468 539 43,100  Level Salt Lake Center
09:06PM 43.7994 -117.8531 328° Northwest 469 540 43,100  Level Salt Lake Center
09:07PM 43.9078 -117.9475 328° Northwest 473 544 43,100  Level Salt Lake Center
09:08PM 44.0158 -118.0431 328° Northwest 477 549 43,100  Level Salt Lake Center
09:09PM 44.1425 -118.1542 327° Northwest 479 551 43,100 -60 Level Salt Lake Center
09:10PM 44.2514 -118.2517 327° Northwest 483 556 43,000 -60 Descending Salt Lake Center
09:11PM 44.3789 -118.3664 327° Northwest 485 558 43,000  Level Salt Lake Center
09:11PM 44.4286 -118.4108 327° Northwest 484 557 43,000  Level Seattle Center
09:12PM 44.5619 -118.5317 327° Northwest 482 555 43,000  Level Seattle Center
09:14PM 44.6725 -118.6319 326° Northwest 479 551 43,000  Level Seattle Center
09:15PM 44.7819 -118.7344 327° Northwest 479 551 43,000  Level Seattle Center
09:16PM 44.8922 -118.8353 327° Northwest 479 551 43,000  Level Seattle Center
09:17PM 45.0033 -118.9386 327° Northwest 481 554 43,000  Level Seattle Center
09:18PM 45.1156 -119.0411 327° Northwest 484 557 43,000  Level Seattle Center
09:19PM 45.2267 -119.1456 326° Northwest 486 559 43,000  Level Seattle Center
09:20PM 45.3581 -119.2708 326° Northwest 483 556 43,000  Level Seattle Center
09:21PM 45.4683 -119.3753 326° Northwest 483 556 43,000  Level Seattle Center
09:22PM 45.5792 -119.4803 326° Northwest 484 557 43,000  Level Seattle Center
09:23PM 45.6914 -119.5867 326° Northwest 487 560 43,000  Level Seattle Center
09:24PM 45.8042 -119.6953 326° Northwest 492 566 43,000  Level Seattle Center
09:25PM 45.9136 -119.8000 326° Northwest 485 558 43,000 -240 Level Seattle Center
09:26PM 46.0450 -119.9292 326° Northwest 481 554 42,600 -960 Descending Seattle Center
09:27PM 46.1533 -120.0347 325° Northwest 478 550 41,100 -840 Descending Seattle Center
09:28PM 46.2633 -120.1450 326° Northwest 483 556 40,900 -1,440 Descending Seattle Center
09:29PM 46.3753 -120.2542 326° Northwest 488 562 38,200 -3,180 Descending Seattle Center
09:30PM 46.4883 -120.3661 319° Northwest 495 570 34,400 -3,840 Descending Seattle Center
09:31PM 46.5942 -120.4994 305° West 516 594 30,500 -3,540 Descending Seattle Center
09:32PM 46.6714 -120.6600 305° West 495 570 27,300 -3,420 Descending Seattle Center
09:33PM 46.7478 -120.8222 305° West 492 566 23,600 -3,600 Descending Seattle Center
09:34PM 46.8361 -121.0103 304° West 478 550 20,100 -2,640 Descending Seattle Center
09:35PM 46.9025 -121.1525 304° West 431 496 18,300 -1,560 Descending Seattle Center
09:36PM 46.9644 -121.2861 306° West 397 457 17,000 -960 Descending Seattle Center
09:37PM 47.0153 -121.3872 299° West 353 406 16,600 -540 Descending Seattle Center
09:37PM 47.0228 -121.4069 305° West 351 404 16,500 -1,020 Descending Seattle Center
09:38PM 47.0719 -121.5086 54° Northeast 334 384 15,500 -1,020 Descending Seattle Center
09:38PM 47.0722 -121.5081 304° West 334 384 15,500 -1,140 Level Seattle Center
09:39PM 47.1194 -121.6125 280° West 312 359 14,400 -1,140 Descending Seattle Center
09:39PM 47.1197 -121.6147 304° West 318 366 14,400 -1,380 Level Seattle Center
09:40PM 47.1658 -121.7147 304° West 301 346 12,900 -1,200 Descending Seattle Center
09:41PM 47.2197 -121.8308 305° West 295 339 12,000 -840 Descending Seattle Center
09:41PM 47.2222 -121.8361 303° West 295 339 12,000 -780 Level Seattle Center
09:42PM 47.2700 -121.9436 304° West 293 337 11,200 -1,080 Descending Seattle Center
09:43PM 47.3083 -122.0272 304° West 290 334 10,000 -660 Descending Seattle Center
09:44PM 47.3517 -122.1225 300° West 284 327 10,000  Level Seattle Center
09:45PM 47.3900 -122.2206 317° Northwest 283 326 10,000  Level Seattle Center
09:45PM 47.3914 -122.2225 293° West 283 326 10,000 -720 Level Seattle Center
09:46PM 47.4217 -122.3275 11° North 284 327 9,300 -720 Descending Seattle Center
09:46PM 47.4236 -122.3269 304° West 277 319 9,300 -1,920 Level Seattle Center
09:47PM 47.4647 -122.4186 199° South 276 318 7,400 -1,920 Descending Seattle Center
09:47PM 47.4642 -122.4189 329° Northwest 276 318 7,400 -1,920 Level Seattle Center
09:48PM 47.5308 -122.4775 137° Southeast 262 302 5,500 -1,920 Descending Seattle Center
09:48PM 47.5278 -122.4733 330° Northwest 260 299 5,500 -600 Level Seattle Center
09:49PM 47.5872 -122.5250 329° Northwest 237 273 4,800 -900 Descending Seattle Center
09:50PM 47.6356 -122.5678 113° Southeast 193 222 3,900 -900 Descending Seattle Center
09:50PM 47.6350 -122.5658 329° Northwest 198 228 3,900 -1,200 Level Seattle Center
09:51PM 47.6875 -122.6133 19° North 186 214 2,500 -900 Descending Seattle Center
09:52PM 47.7303 -122.5914 21° North 183 211 2,200 -300 Descending Seattle Center
09:52PM 47.7328 -122.5900 337° Northwest 189 217 2,200  Level Seattle Center
09:53PM 47.7717 -122.6147 35° Northeast 186 214 2,200 -120 Level Seattle Center
09:53PM 47.7797 -122.6064 98° East 191 220 2,100  Descending Seattle Center
09:54PM 47.7742 -122.5444 82° East 176 203 2,200  Climbing Seattle Center
09:54PM 47.7744 -122.5414 129° Southeast 172 198 2,100  Descending Seattle Center
09:55PM 47.7478 -122.4928 116° Southeast 175 201 2,200 60 Climbing Seattle Center
09:55PM 47.7456 -122.4861 152° Southeast 172 198 2,200  Level Seattle Center
09:56PM 47.7075 -122.4558 137° Southeast 172 198 2,200  Level Seattle Center
09:56PM 47.7039 -122.4508 150° Southeast 174 200 2,200  Level Seattle Center
09:57PM 47.6672 -122.4189 154° Southeast 172 198 2,200  Level Seattle Center
09:57PM 47.6631 -122.4158 150° Southeast 171 197 2,200 -300 Level Seattle Center
09:58PM 47.6275 -122.3850 160° South 159 183 1,900 -420 Descending Seattle Center
09:58PM 47.6214 -122.3817 149° Southeast 156 180 1,800 -720 Descending Seattle Center
09:59PM 47.5939 -122.3575 153° Southeast 144 166 1,200 -840 Descending Seattle Center
09:59PM 47.5872 -122.3525 151° Southeast 143 165 1,000 -900 Descending Seattle Center
10:00PM 47.5603 -122.3300 147° Southeast 145 167 400 -720 Descending Seattle Center
10:00PM 47.5519 -122.3219 147° Southeast 145 167 300 -360 Descending Seattle Center